Time;durP1;ratioP1;P1;durP2;ratioP2;P2;SDS_P1;SDS_P2;PMS_P1;PMS_P2;Temp;Humidity;BMP_temperature;BMP_pressure;BME280_temperature;BME280_humidity;BME280_pressure;Samples;Min_cycle;Max_cycle;Signal;HPM_P1;HPM_P2
2022/11/16 00:01:11;;;;;;;3.80;3.70;;;;;;;;;;4994812;28;20945;-72
2022/11/16 00:03:37;;;;;;;4.20;4.00;;;;;;;;;;4998884;28;20438;-73
2022/11/16 00:06:04;;;;;;;4.30;4.20;;;;;;;;;;4992520;28;20444;-73
2022/11/16 00:08:31;;;;;;;5.97;4.10;;;;;;;;;;4995930;28;20522;-72
2022/11/16 00:11:07;;;;;;;4.20;4.00;;;;;;;;;;4998075;28;20506;-75
2022/11/16 00:13:34;;;;;;;3.80;3.70;;;;;;;;;;4998498;28;20854;-73
2022/11/16 00:16:00;;;;;;;4.30;4.10;;;;;;;;;;4997700;28;20550;-72
2022/11/16 00:18:26;;;;;;;4.17;4.07;;;;;;;;;;5012221;28;20419;-72
2022/11/16 00:20:52;;;;;;;4.27;4.17;;;;;;;;;;5004133;28;20468;-74
2022/11/16 00:23:19;;;;;;;3.83;3.73;;;;;;;;;;5009469;28;20427;-72
2022/11/16 00:25:45;;;;;;;4.17;3.97;;;;;;;;;;5001982;28;20440;-73
2022/11/16 00:28:11;;;;;;;5.13;4.70;;;;;;;;;;5006016;28;20435;-74
2022/11/16 00:30:37;;;;;;;4.27;4.17;;;;;;;;;;5020031;28;20480;-74
2022/11/16 00:33:03;;;;;;;4.20;4.00;;;;;;;;;;4994319;28;20893;-72
2022/11/16 00:35:29;;;;;;;4.20;4.03;;;;;;;;;;5014954;28;20590;-74
2022/11/16 00:37:55;;;;;;;3.73;3.53;;;;;;;;;;5016215;28;20533;-73
2022/11/16 00:40:22;;;;;;;4.67;4.47;;;;;;;;;;5000555;28;20790;-72
2022/11/16 00:42:48;;;;;;;4.83;4.57;;;;;;;;;;5015873;28;20953;-72
2022/11/16 00:45:14;;;;;;;4.50;4.40;;;;;;;;;;5025204;28;20730;-73
2022/11/16 00:47:40;;;;;;;4.03;3.93;;;;;;;;;;5013564;28;20416;-73
2022/11/16 00:50:06;;;;;;;4.40;4.10;;;;;;;;;;5025612;28;20516;-73
2022/11/16 00:52:32;;;;;;;4.70;4.40;;;;;;;;;;5018501;28;20418;-73
2022/11/16 00:54:58;;;;;;;5.60;5.30;;;;;;;;;;5014345;28;20486;-73
2022/11/16 00:57:24;;;;;;;4.50;4.30;;;;;;;;;;4997553;28;20448;-72
2022/11/16 00:59:50;;;;;;;4.47;4.37;;;;;;;;;;5011716;28;20438;-74
2022/11/16 01:02:16;;;;;;;4.40;4.30;;;;;;;;;;5009189;28;20794;-73
2022/11/16 01:04:42;;;;;;;4.50;4.30;;;;;;;;;;5010887;28;20423;-73
2022/11/16 01:07:08;;;;;;;4.70;4.50;;;;;;;;;;4995599;28;20458;-74
2022/11/16 01:09:34;;;;;;;4.33;4.07;;;;;;;;;;5016962;28;20498;-73
2022/11/16 01:12:09;;;;;;;4.20;4.00;;;;;;;;;;5010191;28;20417;-73
2022/11/16 01:14:45;;;;;;;3.93;3.83;;;;;;;;;;5004769;28;20447;-74
2022/11/16 01:17:11;;;;;;;4.40;4.30;;;;;;;;;;4993554;28;20418;-72
2022/11/16 01:19:38;;;;;;;4.30;4.10;;;;;;;;;;5021292;28;20948;-73
2022/11/16 01:22:04;;;;;;;4.53;4.33;;;;;;;;;;5013895;28;20422;-74
2022/11/16 01:24:30;;;;;;;4.73;4.63;;;;;;;;;;5014173;28;20871;-71
2022/11/16 01:26:57;;;;;;;5.07;4.63;;;;;;;;;;5012641;28;20407;-73
2022/11/16 01:29:27;;;;;;;5.30;5.10;;;;;;;;;;5024886;28;20431;-72
2022/11/16 01:31:53;;;;;;;4.00;3.90;;;;;;;;;;5014733;28;20478;-72
2022/11/16 01:34:19;;;;;;;5.00;4.70;;;;;;;;;;5018789;28;20428;-73
2022/11/16 01:36:45;;;;;;;4.40;4.30;;;;;;;;;;4994356;28;20506;-72
2022/11/16 01:39:12;;;;;;;4.83;4.63;;;;;;;;;;5010645;28;20462;-72
2022/11/16 01:41:39;;;;;;;4.67;4.57;;;;;;;;;;4986859;28;20811;-72
2022/11/16 01:44:25;;;;;;;4.93;4.73;;;;;;;;;;5020553;28;20427;-72
2022/11/16 01:46:51;;;;;;;5.93;5.63;;;;;;;;;;4996579;28;20861;-72
2022/11/16 01:49:19;;;;;;;5.43;5.13;;;;;;;;;;5013239;28;20423;-72
2022/11/16 01:51:47;;;;;;;4.83;4.63;;;;;;;;;;4995008;28;20903;-72
2022/11/16 01:54:14;;;;;;;5.23;5.03;;;;;;;;;;5012892;28;20488;-73
2022/11/16 01:56:41;;;;;;;4.73;4.63;;;;;;;;;;4995452;28;20440;-72
2022/11/16 01:59:07;;;;;;;5.20;4.70;;;;;;;;;;5022346;28;20428;-72
2022/11/16 02:01:33;;;;;;;4.77;4.40;;;;;;;;;;4995851;28;20519;-72
2022/11/16 02:03:59;;;;;;;5.90;5.33;;;;;;;;;;5014875;28;20794;-73
2022/11/16 02:06:25;;;;;;;5.20;5.00;;;;;;;;;;4999120;28;20452;-72
2022/11/16 02:12:01;;;;;;;4.87;4.67;;;;;;;;;;5006230;28;20503;-72
2022/11/16 02:14:27;;;;;;;4.60;4.33;;;;;;;;;;4998473;28;20423;-72
2022/11/16 02:16:59;;;;;;;5.83;5.40;;;;;;;;;;4978573;28;20423;-73
2022/11/16 02:19:34;;;;;;;4.57;4.40;;;;;;;;;;4984684;28;20490;-73
2022/11/16 02:22:04;;;;;;;5.67;5.37;;;;;;;;;;4997279;28;20432;-73
2022/11/16 02:24:36;;;;;;;4.57;4.47;;;;;;;;;;4988990;28;20709;-72
2022/11/16 02:27:25;;;;;;;4.33;4.13;;;;;;;;;;5012662;28;20407;-73
2022/11/16 02:29:53;;;;;;;4.30;4.20;;;;;;;;;;5002878;28;20636;-73
2022/11/16 02:32:28;;;;;;;3.97;3.87;;;;;;;;;;4990433;28;20457;-72
2022/11/16 02:35:17;;;;;;;3.87;3.73;;;;;;;;;;5003443;28;20817;-73
2022/11/16 02:37:46;;;;;;;3.57;3.43;;;;;;;;;;5013777;28;20451;-73
2022/11/16 02:40:14;;;;;;;4.00;4.00;;;;;;;;;;5011964;28;20427;-72
2022/11/16 02:42:44;;;;;;;4.47;4.23;;;;;;;;;;5007553;28;20408;-72
2022/11/16 02:45:13;;;;;;;2.90;2.80;;;;;;;;;;5006120;28;20916;-74
2022/11/16 02:47:40;;;;;;;3.43;3.23;;;;;;;;;;5011659;28;20407;-73
2022/11/16 02:50:09;;;;;;;3.10;2.90;;;;;;;;;;5019253;28;20976;-73
2022/11/16 02:52:37;;;;;;;3.63;3.43;;;;;;;;;;5007674;28;20450;-73
2022/11/16 02:55:03;;;;;;;2.70;2.70;;;;;;;;;;4992807;28;20469;-72
2022/11/16 02:57:37;;;;;;;3.00;2.80;;;;;;;;;;5007189;28;20427;-73
2022/11/16 03:00:04;;;;;;;3.40;3.40;;;;;;;;;;5002154;28;20434;-73
2022/11/16 03:02:46;;;;;;;3.20;3.20;;;;;;;;;;5008084;28;21068;-72
2022/11/16 03:05:18;;;;;;;3.27;3.07;;;;;;;;;;5008214;28;20437;-72
2022/11/16 03:07:57;;;;;;;3.97;3.67;;;;;;;;;;4991941;28;20404;-72
2022/11/16 03:13:10;;;;;;;2.60;2.60;;;;;;;;;;4994965;28;20423;-72
2022/11/16 03:15:37;;;;;;;2.80;2.80;;;;;;;;;;5010217;28;20443;-73
2022/11/16 03:18:05;;;;;;;2.90;2.90;;;;;;;;;;5017052;28;20428;-73
2022/11/16 03:20:31;;;;;;;2.07;2.07;;;;;;;;;;5011696;28;20443;-72
2022/11/16 03:23:02;;;;;;;2.23;2.23;;;;;;;;;;5013960;28;20709;-73
2022/11/16 03:25:35;;;;;;;2.40;2.40;;;;;;;;;;5013639;28;20997;-73
2022/11/16 03:28:05;;;;;;;2.10;2.10;;;;;;;;;;5003972;28;20426;-74
2022/11/16 03:30:33;;;;;;;2.40;2.30;;;;;;;;;;5010330;28;20475;-73
2022/11/16 03:32:59;;;;;;;1.97;1.97;;;;;;;;;;5017515;28;20458;-73
2022/11/16 03:35:48;;;;;;;1.90;1.90;;;;;;;;;;5016025;28;20439;-73
2022/11/16 03:38:15;;;;;;;2.10;2.10;;;;;;;;;;4999019;28;20442;-72
2022/11/16 03:40:43;;;;;;;1.97;1.97;;;;;;;;;;5022681;28;20431;-74
2022/11/16 03:43:10;;;;;;;1.70;1.67;;;;;;;;;;5017834;28;20944;-73
2022/11/16 03:45:36;;;;;;;2.43;2.43;;;;;;;;;;5005127;28;20465;-72
2022/11/16 03:48:02;;;;;;;1.97;1.97;;;;;;;;;;5014361;28;20602;-72
2022/11/16 03:50:29;;;;;;;1.97;1.97;;;;;;;;;;5013369;28;20466;-72
2022/11/16 03:52:55;;;;;;;2.60;2.40;;;;;;;;;;4993027;28;20429;-72
2022/11/16 03:55:21;;;;;;;1.90;1.90;;;;;;;;;;4991462;28;20961;-73
2022/11/16 03:57:47;;;;;;;1.97;1.97;;;;;;;;;;4994918;28;20436;-73
2022/11/16 04:00:13;;;;;;;2.03;2.03;;;;;;;;;;4992189;28;20440;-72
2022/11/16 04:02:39;;;;;;;2.60;2.40;;;;;;;;;;5006307;28;20412;-72
2022/11/16 04:24:36;;;;;;;2.23;2.13;;;;;;;;;;5005453;28;20853;-74
2022/11/16 04:29:48;;;;;;;1.77;1.73;;;;;;;;;;5007571;28;20508;-72
2022/11/16 04:37:47;;;;;;;2.30;2.30;;;;;;;;;;5006787;28;20439;-72
2022/11/16 04:40:13;;;;;;;2.10;2.00;;;;;;;;;;5017194;28;20419;-73
2022/11/16 04:42:39;;;;;;;2.23;2.23;;;;;;;;;;4995777;28;21215;-72
2022/11/16 04:47:51;;;;;;;2.27;2.10;;;;;;;;;;5006126;28;20964;-72
2022/11/16 04:50:17;;;;;;;2.27;2.27;;;;;;;;;;5010943;28;20960;-73
2022/11/16 04:52:43;;;;;;;3.00;2.90;;;;;;;;;;5008703;28;20411;-73
2022/11/16 04:55:10;;;;;;;2.17;2.17;;;;;;;;;;5011640;28;20479;-72
2022/11/16 04:57:36;;;;;;;2.60;2.50;;;;;;;;;;4981388;28;20436;-72
2022/11/16 05:00:03;;;;;;;2.87;2.77;;;;;;;;;;4995052;28;21039;-72
2022/11/16 05:02:29;;;;;;;2.10;2.10;;;;;;;;;;4992666;28;20412;-72
2022/11/16 05:04:55;;;;;;;2.50;2.50;;;;;;;;;;4993524;28;20484;-72
2022/11/16 05:07:21;;;;;;;2.07;2.07;;;;;;;;;;4998700;28;20412;-73
2022/11/16 05:09:48;;;;;;;2.70;2.70;;;;;;;;;;5004131;28;20475;-73
2022/11/16 05:12:16;;;;;;;2.53;2.53;;;;;;;;;;4992986;28;20854;-73
2022/11/16 05:14:43;;;;;;;2.90;2.80;;;;;;;;;;4996695;28;20775;-73
2022/11/16 05:17:09;;;;;;;2.93;2.73;;;;;;;;;;5000206;28;20431;-72
2022/11/16 05:22:19;;;;;;;3.13;2.87;;;;;;;;;;5000673;28;20417;-72
2022/11/16 05:24:46;;;;;;;3.73;3.63;;;;;;;;;;5015263;28;20431;-73
2022/11/16 05:27:13;;;;;;;3.33;3.23;;;;;;;;;;4981698;28;20488;-72
2022/11/16 05:29:39;;;;;;;3.73;3.60;;;;;;;;;;4994992;28;20419;-73
2022/11/16 05:32:06;;;;;;;3.97;3.87;;;;;;;;;;5008604;28;20932;-72
2022/11/16 05:34:33;;;;;;;4.20;4.00;;;;;;;;;;5000667;28;20527;-73
2022/11/16 05:36:59;;;;;;;4.10;3.97;;;;;;;;;;4995140;28;20417;-73
2022/11/16 05:39:25;;;;;;;7.60;4.20;;;;;;;;;;5018068;28;20494;-73
2022/11/16 05:41:52;;;;;;;3.70;3.70;;;;;;;;;;5012694;28;20419;-71
2022/11/16 05:44:18;;;;;;;4.40;4.00;;;;;;;;;;5016009;28;20738;-75
2022/11/16 05:46:45;;;;;;;3.70;3.60;;;;;;;;;;5006786;28;20474;-72
2022/11/16 05:49:11;;;;;;;3.77;3.57;;;;;;;;;;4995257;28;20439;-72
2022/11/16 05:51:39;;;;;;;4.53;4.10;;;;;;;;;;4999870;28;20476;-73
2022/11/16 05:54:05;;;;;;;4.00;3.80;;;;;;;;;;5011771;28;20431;-72
2022/11/16 05:56:32;;;;;;;4.17;4.00;;;;;;;;;;4997278;28;20474;-72
2022/11/16 05:58:58;;;;;;;4.17;4.00;;;;;;;;;;4981545;28;20440;-73
2022/11/16 06:01:25;;;;;;;5.17;4.70;;;;;;;;;;4990911;28;20438;-73
2022/11/16 06:03:51;;;;;;;5.00;4.70;;;;;;;;;;5015878;28;20431;-72
2022/11/16 06:06:17;;;;;;;4.63;4.50;;;;;;;;;;5006522;28;20446;-72
2022/11/16 06:08:43;;;;;;;5.80;5.40;;;;;;;;;;5020510;28;20466;-73
2022/11/16 06:11:09;;;;;;;4.97;4.60;;;;;;;;;;5013735;28;20475;-72
2022/11/16 06:13:36;;;;;;;5.10;4.80;;;;;;;;;;5019347;28;20443;-73
2022/11/16 06:16:02;;;;;;;5.13;4.70;;;;;;;;;;4999324;28;20452;-72
2022/11/16 06:18:48;;;;;;;5.80;5.45;;;;;;;;;;4998585;28;10000916;-73
2022/11/16 06:21:15;;;;;;;4.37;4.27;;;;;;;;;;5002285;28;20570;-72
2022/11/16 06:23:41;;;;;;;5.70;5.20;;;;;;;;;;4996942;28;20801;-73
2022/11/16 06:26:08;;;;;;;6.30;5.90;;;;;;;;;;5000506;28;20946;-72
2022/11/16 06:28:34;;;;;;;5.03;4.83;;;;;;;;;;5002356;28;20501;-73
2022/11/16 06:31:00;;;;;;;5.00;4.73;;;;;;;;;;4989492;28;20511;-73
2022/11/16 06:33:26;;;;;;;6.33;5.90;;;;;;;;;;4991761;28;20425;-73
2022/11/16 06:35:52;;;;;;;6.37;5.77;;;;;;;;;;4970661;28;20990;-72
2022/11/16 06:38:19;;;;;;;6.97;6.37;;;;;;;;;;4993051;28;20566;-72
2022/11/16 06:40:48;;;;;;;6.47;5.87;;;;;;;;;;5000778;28;20459;-73
2022/11/16 06:43:14;;;;;;;6.03;5.63;;;;;;;;;;4987640;28;20892;-73
2022/11/16 06:45:40;;;;;;;6.50;5.90;;;;;;;;;;4991592;28;20460;-73
2022/11/16 06:48:06;;;;;;;23.77;11.60;;;;;;;;;;4997563;28;20439;-73
2022/11/16 06:50:32;;;;;;;22.93;8.13;;;;;;;;;;4993690;28;20471;-74
2022/11/16 06:53:01;;;;;;;7.80;7.00;;;;;;;;;;5008406;28;20455;-72
2022/11/16 06:55:28;;;;;;;11.60;7.93;;;;;;;;;;4986920;28;21174;-73
2022/11/16 06:57:54;;;;;;;7.47;6.77;;;;;;;;;;4994699;28;20939;-72
2022/11/16 07:00:20;;;;;;;10.40;7.17;;;;;;;;;;5009613;28;20443;-73
2022/11/16 07:02:46;;;;;;;16.17;7.97;;;;;;;;;;4995765;28;20423;-73
2022/11/16 07:05:12;;;;;;;6.80;6.10;;;;;;;;;;4994347;28;20450;-73
2022/11/16 07:07:40;;;;;;;7.93;6.20;;;;;;;;;;4997120;28;20831;-73
2022/11/16 07:10:06;;;;;;;5.23;4.77;;;;;;;;;;5002877;28;21399;-72
2022/11/16 07:12:32;;;;;;;6.53;5.93;;;;;;;;;;4991380;28;20416;-72
2022/11/16 07:14:58;;;;;;;6.13;5.53;;;;;;;;;;4992232;28;20533;-72
2022/11/16 07:17:24;;;;;;;20.80;8.07;;;;;;;;;;5003388;28;20929;-74
2022/11/16 07:19:50;;;;;;;6.17;5.60;;;;;;;;;;4993215;28;20961;-72
2022/11/16 07:22:16;;;;;;;5.23;4.70;;;;;;;;;;4992491;28;20419;-72
2022/11/16 07:24:42;;;;;;;5.67;5.13;;;;;;;;;;5004150;28;20435;-72
2022/11/16 07:27:09;;;;;;;3.67;3.37;;;;;;;;;;4981353;28;20428;-74
2022/11/16 07:29:35;;;;;;;4.30;3.80;;;;;;;;;;4998508;28;20471;-74
2022/11/16 07:32:01;;;;;;;4.40;3.23;;;;;;;;;;4985522;28;20416;-74
2022/11/16 07:34:27;;;;;;;8.83;4.90;;;;;;;;;;4996776;28;20553;-73
2022/11/16 07:36:53;;;;;;;6.23;4.17;;;;;;;;;;4998987;28;20909;-74
2022/11/16 07:39:20;;;;;;;6.33;3.40;;;;;;;;;;5004590;28;20516;-73
2022/11/16 07:41:49;;;;;;;8.80;5.07;;;;;;;;;;4999043;28;20479;-74
2022/11/16 07:44:15;;;;;;;3.07;2.93;;;;;;;;;;4991693;28;20446;-73
2022/11/16 07:46:41;;;;;;;4.43;2.40;;;;;;;;;;4992580;28;20494;-73
2022/11/16 07:49:07;;;;;;;3.00;2.70;;;;;;;;;;5003436;28;20512;-72
2022/11/16 07:51:33;;;;;;;5.40;3.57;;;;;;;;;;4998566;28;20475;-72
2022/11/16 07:53:59;;;;;;;5.57;5.03;;;;;;;;;;4997436;28;20451;-72
2022/11/16 07:56:25;;;;;;;1.90;1.80;;;;;;;;;;5004752;28;20781;-74
2022/11/16 07:58:51;;;;;;;9.37;3.20;;;;;;;;;;4991594;28;20459;-73
2022/11/16 08:01:18;;;;;;;2.67;2.47;;;;;;;;;;4993056;28;20451;-73
2022/11/16 08:03:45;;;;;;;2.40;2.23;;;;;;;;;;4990674;28;20482;-72
2022/11/16 08:06:16;;;;;;;6.80;2.20;;;;;;;;;;4999501;28;20521;-71
2022/11/16 08:08:42;;;;;;;4.43;2.73;;;;;;;;;;4979060;28;20450;-72
2022/11/16 08:11:09;;;;;;;4.47;3.10;;;;;;;;;;5002695;28;20506;-73
2022/11/16 08:13:35;;;;;;;5.23;2.50;;;;;;;;;;4997922;28;20834;-71
2022/11/16 08:16:03;;;;;;;6.47;3.50;;;;;;;;;;5011539;28;20430;-72
2022/11/16 08:18:29;;;;;;;3.90;3.60;;;;;;;;;;4991805;28;20724;-73
2022/11/16 08:20:58;;;;;;;2.73;2.60;;;;;;;;;;4975224;28;20818;-73
2022/11/16 08:23:24;;;;;;;7.33;3.63;;;;;;;;;;4994324;28;20535;-73
2022/11/16 08:25:50;;;;;;;3.10;2.87;;;;;;;;;;5000723;28;20946;-72
2022/11/16 08:28:17;;;;;;;3.43;2.80;;;;;;;;;;4995179;28;20770;-74
2022/11/16 08:30:43;;;;;;;6.70;6.10;;;;;;;;;;4994476;28;20492;-73
2022/11/16 08:33:12;;;;;;;5.33;2.80;;;;;;;;;;4998248;28;20395;-72
2022/11/16 08:35:38;;;;;;;3.53;2.80;;;;;;;;;;5002601;28;20425;-72
2022/11/16 08:38:04;;;;;;;3.60;2.70;;;;;;;;;;5003859;28;20479;-74
2022/11/16 08:40:32;;;;;;;3.13;3.00;;;;;;;;;;4994585;28;20414;-73
2022/11/16 08:42:58;;;;;;;3.80;3.43;;;;;;;;;;5000486;28;20442;-73
2022/11/16 08:45:24;;;;;;;4.43;4.10;;;;;;;;;;4998188;28;20428;-73
2022/11/16 08:47:51;;;;;;;5.60;3.70;;;;;;;;;;4979989;28;21029;-72
2022/11/16 08:50:17;;;;;;;2.77;2.70;;;;;;;;;;5000119;28;20985;-73
2022/11/16 08:52:46;;;;;;;4.23;3.10;;;;;;;;;;4998644;28;20468;-74
2022/11/16 08:55:12;;;;;;;4.13;2.70;;;;;;;;;;5000721;28;20910;-73
2022/11/16 08:57:39;;;;;;;3.27;2.47;;;;;;;;;;4998750;28;20522;-75
2022/11/16 09:00:06;;;;;;;5.97;2.67;;;;;;;;;;5000952;28;20436;-73
2022/11/16 09:02:32;;;;;;;2.90;2.80;;;;;;;;;;4994778;28;20445;-73
2022/11/16 09:04:58;;;;;;;5.00;2.00;;;;;;;;;;5001086;28;20894;-74
2022/11/16 09:07:24;;;;;;;4.77;2.70;;;;;;;;;;5001173;28;20942;-72
2022/11/16 09:09:50;;;;;;;2.10;2.00;;;;;;;;;;5003468;28;20439;-72
2022/11/16 09:12:16;;;;;;;4.97;1.80;;;;;;;;;;4647264;28;10000014;-72
2022/11/16 09:14:42;;;;;;;1.37;1.37;;;;;;;;;;4998591;28;20199;-71
2022/11/16 09:17:08;;;;;;;1.93;1.80;;;;;;;;;;4997682;28;20558;-72
2022/11/16 09:19:34;;;;;;;2.73;1.33;;;;;;;;;;4998583;28;20412;-72
2022/11/16 09:22:00;;;;;;;3.80;1.60;;;;;;;;;;5005403;28;20442;-72
2022/11/16 09:24:26;;;;;;;2.60;1.33;;;;;;;;;;5000245;28;20412;-72
2022/11/16 09:26:55;;;;;;;1.40;1.30;;;;;;;;;;4998729;28;20533;-72
2022/11/16 09:29:21;;;;;;;1.50;1.40;;;;;;;;;;5003794;28;20478;-71
2022/11/16 09:31:47;;;;;;;6.00;1.70;;;;;;;;;;4997858;28;20494;-72
2022/11/16 09:34:14;;;;;;;6.77;2.10;;;;;;;;;;5011014;28;20453;-72
2022/11/16 09:36:40;;;;;;;1.70;1.60;;;;;;;;;;4990877;28;20518;-71
2022/11/16 09:39:06;;;;;;;1.00;1.00;;;;;;;;;;5009506;28;20460;-72
2022/11/16 09:41:51;;;;;;;4.77;1.40;;;;;;;;;;5016258;28;20435;-71
2022/11/16 09:44:32;;;;;;;2.83;1.60;;;;;;;;;;4642937;28;10000135;-72
2022/11/16 09:46:59;;;;;;;1.50;1.40;;;;;;;;;;5003593;28;20188;-72
2022/11/16 09:49:28;;;;;;;2.20;1.40;;;;;;;;;;4999113;28;20530;-72
2022/11/16 09:51:57;;;;;;;4.03;2.47;;;;;;;;;;5004538;28;20462;-71
2022/11/16 09:54:25;;;;;;;2.87;1.43;;;;;;;;;;4994647;28;20429;-71
2022/11/16 09:56:53;;;;;;;4.47;1.93;;;;;;;;;;5000745;28;20492;-71
2022/11/16 09:59:28;;;;;;;4.30;1.77;;;;;;;;;;5001416;28;20792;-72
2022/11/16 10:02:13;;;;;;;4.23;1.63;;;;;;;;;;4994979;28;20867;-73
2022/11/16 10:04:46;;;;;;;2.10;1.90;;;;;;;;;;4994399;28;21454;-73
2022/11/16 10:07:16;;;;;;;2.30;1.80;;;;;;;;;;4998336;28;20412;-73
2022/11/16 10:09:43;;;;;;;5.60;2.23;;;;;;;;;;4996806;28;20734;-73
2022/11/16 10:12:16;;;;;;;2.20;1.43;;;;;;;;;;4995110;28;20476;-72
2022/11/16 10:14:47;;;;;;;2.43;2.13;;;;;;;;;;5001581;28;20436;-72
2022/11/16 10:17:22;;;;;;;3.53;1.60;;;;;;;;;;4997023;28;20510;-73
2022/11/16 10:20:13;;;;;;;4.43;1.77;;;;;;;;;;5009463;28;20441;-72
2022/11/16 10:22:52;;;;;;;1.83;1.73;;;;;;;;;;4992573;28;20427;-73
2022/11/16 10:25:29;;;;;;;1.63;1.50;;;;;;;;;;5003886;28;20423;-73
2022/11/16 10:28:04;;;;;;;10.10;1.97;;;;;;;;;;5005422;28;20844;-72
2022/11/16 10:30:33;;;;;;;4.10;1.63;;;;;;;;;;5000639;28;20510;-77
2022/11/16 10:33:01;;;;;;;3.60;2.00;;;;;;;;;;5014333;28;20529;-73
2022/11/16 10:35:38;;;;;;;1.83;1.60;;;;;;;;;;5000192;28;20424;-72
2022/11/16 10:38:13;;;;;;;2.27;1.80;;;;;;;;;;5002242;28;21018;-72
2022/11/16 10:40:39;;;;;;;8.20;2.10;;;;;;;;;;4998759;28;20940;-72
2022/11/16 10:43:13;;;;;;;4.40;1.30;;;;;;;;;;4995058;28;20515;-73
2022/11/16 10:45:42;;;;;;;3.07;1.60;;;;;;;;;;4998715;28;20451;-72
2022/11/16 10:48:41;;;;;;;2.47;1.23;;;;;;;;;;5004521;28;20800;-73
2022/11/16 10:51:09;;;;;;;3.43;1.60;;;;;;;;;;4957929;28;20476;-73
2022/11/16 10:53:36;;;;;;;1.63;1.53;;;;;;;;;;4982082;28;21028;-73
2022/11/16 10:56:11;;;;;;;1.07;0.90;;;;;;;;;;5000253;28;20466;-72
2022/11/16 10:59:03;;;;;;;1.30;1.30;;;;;;;;;;5004348;28;20610;-73
2022/11/16 11:01:35;;;;;;;2.97;1.00;;;;;;;;;;4998887;28;20460;-73
2022/11/16 11:04:15;;;;;;;6.23;1.50;;;;;;;;;;4996296;28;20578;-71
2022/11/16 11:06:41;;;;;;;1.20;1.10;;;;;;;;;;4992680;28;20431;-71
2022/11/16 11:09:16;;;;;;;1.07;1.03;;;;;;;;;;5008685;28;20451;-73
2022/11/16 11:14:26;;;;;;;2.07;1.97;;;;;;;;;;5004786;28;20446;-73
2022/11/16 11:16:53;;;;;;;1.83;1.73;;;;;;;;;;5009275;28;20435;-72
2022/11/16 11:19:25;;;;;;;3.40;1.30;;;;;;;;;;5000392;28;21181;-72
2022/11/16 11:21:55;;;;;;;4.00;1.20;;;;;;;;;;5007720;28;20420;-72
2022/11/16 11:24:21;;;;;;;1.63;1.13;;;;;;;;;;5001020;28;20434;-73
2022/11/16 11:27:05;;;;;;;1.50;1.40;;;;;;;;;;5001725;28;20464;-73
2022/11/16 11:29:32;;;;;;;3.07;1.57;;;;;;;;;;4997161;28;20790;-72
2022/11/16 11:32:04;;;;;;;4.87;1.57;;;;;;;;;;5007546;28;20911;-73
2022/11/16 11:34:51;;;;;;;2.10;1.53;;;;;;;;;;5003834;28;20966;-72
2022/11/16 11:37:38;;;;;;;3.07;1.30;;;;;;;;;;4999746;28;20439;-73
2022/11/16 11:40:05;;;;;;;1.13;1.10;;;;;;;;;;4963644;28;20421;-72
2022/11/16 11:42:31;;;;;;;1.13;1.13;;;;;;;;;;4975318;28;20433;-73
2022/11/16 11:45:06;;;;;;;3.37;1.27;;;;;;;;;;4976413;28;20434;-72
2022/11/16 11:47:59;;;;;;;1.90;1.48;;;;;;;;;;4919341;28;10000869;-73
2022/11/16 11:50:44;;;;;;;1.40;1.30;;;;;;;;;;4961373;28;20528;-73
2022/11/16 11:53:14;;;;;;;5.07;1.30;;;;;;;;;;4974590;28;20444;-73
2022/11/16 11:55:40;;;;;;;5.57;1.93;;;;;;;;;;4976967;28;20416;-73
2022/11/16 11:58:06;;;;;;;3.93;1.50;;;;;;;;;;4980859;28;21040;-73
2022/11/16 12:01:02;;;;;;;1.43;1.37;;;;;;;;;;4975291;28;20499;-73
2022/11/16 12:03:54;;;;;;;1.67;1.50;;;;;;;;;;4977300;28;20476;-74
2022/11/16 12:06:47;;;;;;;3.30;1.53;;;;;;;;;;4946883;28;20440;-73
2022/11/16 12:09:21;;;;;;;1.50;1.40;;;;;;;;;;4967414;28;20453;-73
2022/11/16 12:11:46;;;;;;;1.40;1.20;;;;;;;;;;4984914;28;20818;-72
2022/11/16 12:14:22;;;;;;;3.80;1.83;;;;;;;;;;4975067;28;20457;-72
2022/11/16 12:17:08;;;;;;;1.43;1.27;;;;;;;;;;4977734;28;20483;-72
2022/11/16 12:19:55;;;;;;;0.80;0.80;;;;;;;;;;4972339;28;20445;-73
2022/11/16 12:22:21;;;;;;;2.10;1.90;;;;;;;;;;4968357;28;20575;-72
2022/11/16 12:25:10;;;;;;;1.90;1.00;;;;;;;;;;4973076;28;20505;-72
2022/11/16 12:27:55;;;;;;;2.20;1.17;;;;;;;;;;4965483;28;20601;-72
2022/11/16 12:30:21;;;;;;;3.87;2.20;;;;;;;;;;4974948;28;20449;-73
2022/11/16 12:32:56;;;;;;;2.50;1.07;;;;;;;;;;4981055;28;20441;-71
2022/11/16 12:35:22;;;;;;;1.57;1.47;;;;;;;;;;4980885;28;20962;-72
2022/11/16 12:37:49;;;;;;;4.63;1.67;;;;;;;;;;4977872;28;20928;-72
2022/11/16 12:40:34;;;;;;;1.03;1.03;;;;;;;;;;4977261;28;20448;-72
2022/11/16 12:43:18;;;;;;;1.33;1.30;;;;;;;;;;5000927;28;20434;-70
2022/11/16 12:45:50;;;;;;;1.07;0.87;;;;;;;;;;5002904;28;20408;-73
2022/11/16 12:48:35;;;;;;;1.43;1.20;;;;;;;;;;5004234;28;20493;-72
2022/11/16 12:51:19;;;;;;;1.23;1.03;;;;;;;;;;5001589;28;20555;-73
2022/11/16 12:53:45;;;;;;;3.50;1.20;;;;;;;;;;5004801;28;20450;-73
2022/11/16 12:56:14;;;;;;;2.60;1.10;;;;;;;;;;4987866;28;20949;-72
2022/11/16 12:58:40;;;;;;;1.53;1.33;;;;;;;;;;5005803;28;20439;-71
2022/11/16 13:01:31;;;;;;;1.10;1.10;;;;;;;;;;5002293;28;20428;-73
2022/11/16 13:04:02;;;;;;;2.60;1.80;;;;;;;;;;5011457;28;20995;-72
2022/11/16 13:06:35;;;;;;;2.43;1.57;;;;;;;;;;4991314;28;20412;-71
2022/11/16 13:09:10;;;;;;;5.80;1.30;;;;;;;;;;5009722;28;20455;-71
2022/11/16 13:11:39;;;;;;;3.60;1.33;;;;;;;;;;5010483;28;20463;-73
2022/11/16 13:14:10;;;;;;;2.30;1.10;;;;;;;;;;5019846;28;20431;-72
2022/11/16 13:16:36;;;;;;;1.23;1.10;;;;;;;;;;5002679;28;20428;-71
2022/11/16 13:19:04;;;;;;;1.30;1.30;;;;;;;;;;4977854;28;20805;-72
2022/11/16 13:21:38;;;;;;;2.80;1.50;;;;;;;;;;5007415;28;20956;-71
2022/11/16 13:24:22;;;;;;;4.93;1.17;;;;;;;;;;4999970;28;20477;-71
2022/11/16 13:27:04;;;;;;;2.50;1.20;;;;;;;;;;4990456;28;20821;-72
2022/11/16 13:29:53;;;;;;;2.03;1.33;;;;;;;;;;5013524;28;20422;-71
2022/11/16 13:32:27;;;;;;;3.30;1.00;;;;;;;;;;4993949;28;20977;-72
2022/11/16 13:34:54;;;;;;;3.00;1.23;;;;;;;;;;5003553;28;20482;-72
2022/11/16 13:37:38;;;;;;;2.20;1.37;;;;;;;;;;5027834;28;20433;-72
2022/11/16 13:40:04;;;;;;;2.33;1.10;;;;;;;;;;4982864;28;20435;-71
2022/11/16 13:42:32;;;;;;;2.87;1.73;;;;;;;;;;5014631;28;20523;-71
2022/11/16 13:45:18;;;;;;;1.27;1.23;;;;;;;;;;4998191;28;20497;-72
2022/11/16 13:47:51;;;;;;;1.53;1.43;;;;;;;;;;5025005;28;20431;-71
2022/11/16 13:50:27;;;;;;;2.63;1.67;;;;;;;;;;4977297;28;20463;-73
2022/11/16 13:52:59;;;;;;;1.53;1.23;;;;;;;;;;5009459;28;20442;-71
2022/11/16 13:55:30;;;;;;;3.70;1.00;;;;;;;;;;4987771;28;20412;-72
2022/11/16 13:57:57;;;;;;;1.60;1.00;;;;;;;;;;5003073;28;20440;-73
2022/11/16 14:00:27;;;;;;;2.33;1.07;;;;;;;;;;5000242;28;20428;-72
2022/11/16 14:03:11;;;;;;;5.00;1.30;;;;;;;;;;4308763;28;10000723;-74
2022/11/16 14:05:39;;;;;;;1.00;0.90;;;;;;;;;;4992251;28;20207;-73
2022/11/16 14:08:36;;;;;;;2.27;0.77;;;;;;;;;;5006030;28;20468;-72
2022/11/16 14:11:02;;;;;;;1.90;1.10;;;;;;;;;;4984091;28;20481;-72
2022/11/16 14:13:29;;;;;;;4.03;1.50;;;;;;;;;;5003147;28;20416;-71
2022/11/16 14:16:14;;;;;;;1.30;1.27;;;;;;;;;;4990816;28;20961;-72
2022/11/16 14:18:41;;;;;;;2.00;1.60;;;;;;;;;;4998475;28;20415;-72
2022/11/16 14:21:17;;;;;;;2.30;2.10;;;;;;;;;;4993651;28;20763;-74
2022/11/16 14:24:00;;;;;;;2.63;0.90;;;;;;;;;;4998762;28;20442;-73
2022/11/16 14:26:36;;;;;;;1.50;1.33;;;;;;;;;;4988196;28;20439;-72
2022/11/16 14:29:22;;;;;;;1.53;1.40;;;;;;;;;;4982184;28;20729;-73
2022/11/16 14:31:56;;;;;;;1.07;1.07;;;;;;;;;;4989368;28;20482;-72
2022/11/16 14:34:23;;;;;;;1.53;1.53;;;;;;;;;;5005617;28;21158;-73
2022/11/16 14:36:50;;;;;;;1.60;1.40;;;;;;;;;;5000644;28;20429;-72
2022/11/16 14:39:31;;;;;;;2.03;2.03;;;;;;;;;;4998439;28;20875;-74
2022/11/16 14:42:00;;;;;;;1.60;1.50;;;;;;;;;;4994198;28;20443;-73
2022/11/16 14:44:27;;;;;;;3.27;2.60;;;;;;;;;;5003203;28;20731;-73
2022/11/16 14:46:53;;;;;;;2.10;1.40;;;;;;;;;;5004454;28;20463;-73
2022/11/16 14:49:20;;;;;;;2.63;1.33;;;;;;;;;;5006109;28;20523;-71
2022/11/16 14:51:48;;;;;;;1.20;1.20;;;;;;;;;;5005510;28;21008;-73
2022/11/16 14:54:24;;;;;;;1.57;1.47;;;;;;;;;;5009099;28;20415;-72
2022/11/16 14:56:56;;;;;;;1.97;1.80;;;;;;;;;;5007801;28;20424;-72
2022/11/16 14:59:23;;;;;;;7.30;2.70;;;;;;;;;;5011430;28;20481;-71
2022/11/16 15:01:49;;;;;;;3.80;3.50;;;;;;;;;;5012019;28;20823;-72
2022/11/16 15:04:17;;;;;;;2.00;0.90;;;;;;;;;;4994930;28;20510;-73
2022/11/16 15:06:46;;;;;;;1.60;1.50;;;;;;;;;;5017449;28;20767;-72
2022/11/16 15:09:16;;;;;;;2.30;1.60;;;;;;;;;;5021861;28;20440;-72
2022/11/16 15:14:29;;;;;;;1.70;1.20;;;;;;;;;;4996677;28;21108;-72
2022/11/16 15:16:56;;;;;;;1.10;1.10;;;;;;;;;;4998341;28;20431;-70
2022/11/16 15:19:23;;;;;;;2.77;1.80;;;;;;;;;;5002594;28;20413;-72
2022/11/16 15:21:56;;;;;;;5.60;1.40;;;;;;;;;;4995706;28;20490;-72
2022/11/16 15:24:32;;;;;;;1.20;1.20;;;;;;;;;;4998830;28;20455;-71
2022/11/16 15:27:17;;;;;;;1.60;1.60;;;;;;;;;;4996650;28;20791;-73
2022/11/16 15:29:43;;;;;;;2.60;2.33;;;;;;;;;;5005906;28;20412;-72
2022/11/16 15:32:15;;;;;;;2.27;1.23;;;;;;;;;;5009192;28;20456;-72
2022/11/16 15:34:41;;;;;;;2.00;1.20;;;;;;;;;;5014919;28;20420;-72
2022/11/16 15:37:10;;;;;;;5.93;1.40;;;;;;;;;;5006067;28;20438;-72
2022/11/16 15:39:36;;;;;;;1.20;1.20;;;;;;;;;;5012516;28;20459;-73
2022/11/16 15:42:02;;;;;;;2.07;1.90;;;;;;;;;;5009150;28;21048;-72
2022/11/16 15:44:30;;;;;;;3.27;1.60;;;;;;;;;;5005087;28;20418;-72